Aviation Digital Data Service (ADDS)

Output produced by METARs form (1036 UTC 29 March 2015)
found at http://aviationweather.gov/adds/metars/
 
KILM 290520Z 2906/3006 36007KT P6SM SKC 
     FM292000 26006KT P6SM SCT250 
     FM300000 VRB02KT P6SM SCT150 SCT250